sensor_id;sensor_type;location;lat;lon;timestamp;P1;durP1;ratioP1;P2;durP2;ratioP2
35839;SDS011;35514;50.504;30.500;2023-02-02T00:00:44;23.63;;;8.88;;
35839;SDS011;35514;50.504;30.500;2023-02-02T00:03:13;29.98;;;8.48;;
35839;SDS011;35514;50.504;30.500;2023-02-02T00:05:44;26.27;;;7.28;;
35839;SDS011;35514;50.504;30.500;2023-02-02T00:08:12;31.35;;;7.88;;
35839;SDS011;35514;50.504;30.500;2023-02-02T00:10:40;24.52;;;8.07;;
35839;SDS011;35514;50.504;30.500;2023-02-02T00:13:08;32.45;;;8.85;;
35839;SDS011;35514;50.504;30.500;2023-02-02T00:15:35;24.85;;;7.70;;
35839;SDS011;35514;50.504;30.500;2023-02-02T00:18:03;25.55;;;8.30;;
35839;SDS011;35514;50.504;30.500;2023-02-02T00:20:32;21.90;;;8.38;;
35839;SDS011;35514;50.504;30.500;2023-02-02T00:23:00;33.22;;;8.98;;
35839;SDS011;35514;50.504;30.500;2023-02-02T00:25:29;21.27;;;7.70;;
35839;SDS011;35514;50.504;30.500;2023-02-02T00:27:57;22.95;;;8.45;;
35839;SDS011;35514;50.504;30.500;2023-02-02T00:30:25;25.00;;;7.88;;
35839;SDS011;35514;50.504;30.500;2023-02-02T00:32:52;32.63;;;8.50;;
35839;SDS011;35514;50.504;30.500;2023-02-02T00:35:20;36.22;;;9.07;;
35839;SDS011;35514;50.504;30.500;2023-02-02T00:37:49;26.95;;;8.50;;
35839;SDS011;35514;50.504;30.500;2023-02-02T00:40:17;16.48;;;7.15;;
35839;SDS011;35514;50.504;30.500;2023-02-02T00:42:44;24.40;;;7.85;;
35839;SDS011;35514;50.504;30.500;2023-02-02T00:45:15;24.42;;;7.78;;
35839;SDS011;35514;50.504;30.500;2023-02-02T00:47:42;20.05;;;7.32;;
35839;SDS011;35514;50.504;30.500;2023-02-02T00:50:11;32.00;;;9.07;;
35839;SDS011;35514;50.504;30.500;2023-02-02T00:52:39;24.10;;;8.35;;
35839;SDS011;35514;50.504;30.500;2023-02-02T00:55:08;17.27;;;7.45;;
35839;SDS011;35514;50.504;30.500;2023-02-02T00:57:36;17.42;;;7.35;;
35839;SDS011;35514;50.504;30.500;2023-02-02T01:00:05;15.43;;;7.20;;
35839;SDS011;35514;50.504;30.500;2023-02-02T01:02:33;33.50;;;8.18;;
35839;SDS011;35514;50.504;30.500;2023-02-02T01:05:00;18.42;;;6.72;;
35839;SDS011;35514;50.504;30.500;2023-02-02T01:07:28;24.38;;;7.70;;
35839;SDS011;35514;50.504;30.500;2023-02-02T01:09:55;22.25;;;7.40;;
35839;SDS011;35514;50.504;30.500;2023-02-02T01:12:24;28.75;;;7.53;;
35839;SDS011;35514;50.504;30.500;2023-02-02T04:57:46;30.17;;;9.40;;
35839;SDS011;35514;50.504;30.500;2023-02-02T05:00:14;31.13;;;9.80;;
35839;SDS011;35514;50.504;30.500;2023-02-02T05:02:42;26.30;;;9.65;;
35839;SDS011;35514;50.504;30.500;2023-02-02T05:05:10;28.77;;;9.88;;
35839;SDS011;35514;50.504;30.500;2023-02-02T05:07:38;21.88;;;9.52;;
35839;SDS011;35514;50.504;30.500;2023-02-02T05:10:07;28.08;;;9.00;;
35839;SDS011;35514;50.504;30.500;2023-02-02T05:12:35;41.35;;;9.93;;
35839;SDS011;35514;50.504;30.500;2023-02-02T05:15:06;28.15;;;10.02;;
35839;SDS011;35514;50.504;30.500;2023-02-02T05:17:34;22.88;;;10.18;;
35839;SDS011;35514;50.504;30.500;2023-02-02T05:20:01;28.10;;;9.18;;
35839;SDS011;35514;50.504;30.500;2023-02-02T05:22:29;30.92;;;9.52;;
35839;SDS011;35514;50.504;30.500;2023-02-02T05:24:56;29.67;;;10.35;;
35839;SDS011;35514;50.504;30.500;2023-02-02T05:27:24;33.78;;;12.32;;
35839;SDS011;35514;50.504;30.500;2023-02-02T05:29:54;30.13;;;10.20;;
35839;SDS011;35514;50.504;30.500;2023-02-02T05:32:24;27.38;;;10.90;;
35839;SDS011;35514;50.504;30.500;2023-02-02T05:34:53;30.05;;;9.77;;
35839;SDS011;35514;50.504;30.500;2023-02-02T05:37:20;33.25;;;10.75;;
35839;SDS011;35514;50.504;30.500;2023-02-02T05:39:48;27.13;;;9.20;;
35839;SDS011;35514;50.504;30.500;2023-02-02T05:42:17;31.00;;;11.32;;
35839;SDS011;35514;50.504;30.500;2023-02-02T05:44:47;23.85;;;8.85;;
35839;SDS011;35514;50.504;30.500;2023-02-02T05:47:14;30.15;;;9.65;;
35839;SDS011;35514;50.504;30.500;2023-02-02T05:49:43;28.15;;;9.90;;
35839;SDS011;35514;50.504;30.500;2023-02-02T05:52:12;33.42;;;10.43;;
35839;SDS011;35514;50.504;30.500;2023-02-02T05:54:40;34.17;;;13.50;;
35839;SDS011;35514;50.504;30.500;2023-02-02T05:57:08;37.30;;;13.52;;
35839;SDS011;35514;50.504;30.500;2023-02-02T05:59:38;46.65;;;16.95;;
35839;SDS011;35514;50.504;30.500;2023-02-02T06:02:06;41.92;;;11.98;;
35839;SDS011;35514;50.504;30.500;2023-02-02T06:04:34;40.33;;;13.18;;
35839;SDS011;35514;50.504;30.500;2023-02-02T06:07:03;42.72;;;14.32;;
35839;SDS011;35514;50.504;30.500;2023-02-02T06:09:30;29.75;;;11.60;;
35839;SDS011;35514;50.504;30.500;2023-02-02T06:12:01;21.73;;;9.68;;
35839;SDS011;35514;50.504;30.500;2023-02-02T06:14:30;36.53;;;10.90;;
35839;SDS011;35514;50.504;30.500;2023-02-02T06:16:57;28.65;;;12.45;;
35839;SDS011;35514;50.504;30.500;2023-02-02T06:19:25;31.35;;;10.52;;
35839;SDS011;35514;50.504;30.500;2023-02-02T06:21:55;31.00;;;12.50;;
35839;SDS011;35514;50.504;30.500;2023-02-02T06:24:24;39.40;;;12.70;;
35839;SDS011;35514;50.504;30.500;2023-02-02T06:26:53;32.83;;;13.07;;
35839;SDS011;35514;50.504;30.500;2023-02-02T06:29:20;39.38;;;14.48;;
35839;SDS011;35514;50.504;30.500;2023-02-02T06:31:48;33.00;;;12.45;;
35839;SDS011;35514;50.504;30.500;2023-02-02T06:34:16;43.78;;;11.05;;
35839;SDS011;35514;50.504;30.500;2023-02-02T06:36:43;36.50;;;10.55;;
35839;SDS011;35514;50.504;30.500;2023-02-02T06:39:11;41.03;;;12.65;;
35839;SDS011;35514;50.504;30.500;2023-02-02T06:41:40;28.38;;;10.35;;
35839;SDS011;35514;50.504;30.500;2023-02-02T06:44:10;37.15;;;12.60;;
35839;SDS011;35514;50.504;30.500;2023-02-02T06:46:37;36.35;;;12.18;;
35839;SDS011;35514;50.504;30.500;2023-02-02T06:49:05;35.25;;;11.25;;
35839;SDS011;35514;50.504;30.500;2023-02-02T06:51:33;40.47;;;11.55;;
35839;SDS011;35514;50.504;30.500;2023-02-02T06:54:00;35.53;;;11.55;;
35839;SDS011;35514;50.504;30.500;2023-02-02T06:56:29;43.85;;;12.90;;
35839;SDS011;35514;50.504;30.500;2023-02-02T06:58:58;33.25;;;10.00;;
35839;SDS011;35514;50.504;30.500;2023-02-02T07:01:26;31.52;;;11.80;;
35839;SDS011;35514;50.504;30.500;2023-02-02T07:03:54;40.63;;;10.90;;
35839;SDS011;35514;50.504;30.500;2023-02-02T07:06:22;24.90;;;9.65;;
35839;SDS011;35514;50.504;30.500;2023-02-02T07:08:51;25.70;;;9.52;;
35839;SDS011;35514;50.504;30.500;2023-02-02T07:11:29;23.30;;;8.80;;
35839;SDS011;35514;50.504;30.500;2023-02-02T07:14:03;21.50;;;9.35;;
35839;SDS011;35514;50.504;30.500;2023-02-02T07:16:31;20.05;;;8.90;;
35839;SDS011;35514;50.504;30.500;2023-02-02T07:18:59;21.00;;;9.18;;
35839;SDS011;35514;50.504;30.500;2023-02-02T07:21:27;23.33;;;9.48;;
35839;SDS011;35514;50.504;30.500;2023-02-02T07:24:00;27.48;;;9.07;;
35839;SDS011;35514;50.504;30.500;2023-02-02T07:26:28;18.17;;;8.70;;
35839;SDS011;35514;50.504;30.500;2023-02-02T07:28:56;23.85;;;8.52;;
35839;SDS011;35514;50.504;30.500;2023-02-02T07:31:25;21.58;;;8.90;;
35839;SDS011;35514;50.504;30.500;2023-02-02T07:33:53;23.95;;;9.65;;
35839;SDS011;35514;50.504;30.500;2023-02-02T07:36:22;30.02;;;9.77;;
35839;SDS011;35514;50.504;30.500;2023-02-02T07:38:50;30.52;;;10.27;;
35839;SDS011;35514;50.504;30.500;2023-02-02T07:41:20;23.15;;;9.23;;
35839;SDS011;35514;50.504;30.500;2023-02-02T07:43:48;21.95;;;8.63;;
35839;SDS011;35514;50.504;30.500;2023-02-02T07:46:16;19.38;;;8.65;;
35839;SDS011;35514;50.504;30.500;2023-02-02T07:48:46;22.45;;;8.85;;
35839;SDS011;35514;50.504;30.500;2023-02-02T07:51:14;31.00;;;9.63;;
35839;SDS011;35514;50.504;30.500;2023-02-02T07:53:43;18.58;;;8.25;;
35839;SDS011;35514;50.504;30.500;2023-02-02T07:56:11;25.30;;;9.45;;
35839;SDS011;35514;50.504;30.500;2023-02-02T07:58:39;17.63;;;8.98;;
35839;SDS011;35514;50.504;30.500;2023-02-02T08:01:07;25.90;;;9.05;;
35839;SDS011;35514;50.504;30.500;2023-02-02T08:03:35;17.90;;;9.13;;
35839;SDS011;35514;50.504;30.500;2023-02-02T08:06:09;18.80;;;7.90;;
35839;SDS011;35514;50.504;30.500;2023-02-02T08:08:37;29.70;;;9.65;;
35839;SDS011;35514;50.504;30.500;2023-02-02T08:11:07;26.75;;;9.45;;
35839;SDS011;35514;50.504;30.500;2023-02-02T08:13:34;25.35;;;8.05;;
35839;SDS011;35514;50.504;30.500;2023-02-02T08:16:02;23.05;;;8.43;;
35839;SDS011;35514;50.504;30.500;2023-02-02T08:18:30;17.38;;;8.30;;
35839;SDS011;35514;50.504;30.500;2023-02-02T08:20:59;18.30;;;8.00;;
35839;SDS011;35514;50.504;30.500;2023-02-02T08:23:28;17.52;;;8.85;;
35839;SDS011;35514;50.504;30.500;2023-02-02T08:26:04;19.83;;;8.43;;
35839;SDS011;35514;50.504;30.500;2023-02-02T08:28:32;22.60;;;7.47;;
35839;SDS011;35514;50.504;30.500;2023-02-02T08:31:02;23.80;;;8.55;;
35839;SDS011;35514;50.504;30.500;2023-02-02T08:33:30;16.88;;;7.80;;
35839;SDS011;35514;50.504;30.500;2023-02-02T08:35:58;26.98;;;9.82;;
35839;SDS011;35514;50.504;30.500;2023-02-02T08:38:25;19.35;;;7.28;;
35839;SDS011;35514;50.504;30.500;2023-02-02T08:40:54;19.33;;;8.40;;
35839;SDS011;35514;50.504;30.500;2023-02-02T08:43:22;22.83;;;8.77;;
35839;SDS011;35514;50.504;30.500;2023-02-02T08:45:50;18.17;;;8.02;;
35839;SDS011;35514;50.504;30.500;2023-02-02T08:48:30;19.05;;;7.53;;
35839;SDS011;35514;50.504;30.500;2023-02-02T08:50:58;24.98;;;8.75;;
35839;SDS011;35514;50.504;30.500;2023-02-02T08:53:28;30.10;;;9.40;;
35839;SDS011;35514;50.504;30.500;2023-02-02T08:55:57;52.58;;;13.02;;
35839;SDS011;35514;50.504;30.500;2023-02-02T08:58:25;42.13;;;10.95;;
35839;SDS011;35514;50.504;30.500;2023-02-02T09:00:53;32.35;;;10.73;;
35839;SDS011;35514;50.504;30.500;2023-02-02T09:03:21;20.92;;;8.50;;
35839;SDS011;35514;50.504;30.500;2023-02-02T09:05:49;22.80;;;9.85;;
35839;SDS011;35514;50.504;30.500;2023-02-02T09:08:16;17.13;;;7.90;;
35839;SDS011;35514;50.504;30.500;2023-02-02T09:10:45;23.48;;;8.13;;
35839;SDS011;35514;50.504;30.500;2023-02-02T09:13:14;24.88;;;7.50;;
35839;SDS011;35514;50.504;30.500;2023-02-02T09:15:42;20.00;;;7.75;;
35839;SDS011;35514;50.504;30.500;2023-02-02T09:18:09;19.20;;;7.60;;
35839;SDS011;35514;50.504;30.500;2023-02-02T09:20:37;16.50;;;7.43;;
35839;SDS011;35514;50.504;30.500;2023-02-02T09:23:06;17.30;;;7.93;;
35839;SDS011;35514;50.504;30.500;2023-02-02T09:25:35;18.85;;;7.72;;
35839;SDS011;35514;50.504;30.500;2023-02-02T09:28:02;15.13;;;6.72;;
35839;SDS011;35514;50.504;30.500;2023-02-02T09:30:33;16.33;;;7.30;;
35839;SDS011;35514;50.504;30.500;2023-02-02T09:33:01;20.13;;;7.88;;
35839;SDS011;35514;50.504;30.500;2023-02-02T09:35:28;19.45;;;8.15;;
35839;SDS011;35514;50.504;30.500;2023-02-02T09:37:56;21.35;;;8.90;;
35839;SDS011;35514;50.504;30.500;2023-02-02T09:40:23;22.30;;;8.73;;
35839;SDS011;35514;50.504;30.500;2023-02-02T09:42:55;20.77;;;8.55;;
35839;SDS011;35514;50.504;30.500;2023-02-02T09:45:27;18.52;;;8.57;;
35839;SDS011;35514;50.504;30.500;2023-02-02T09:48:01;22.77;;;8.02;;
35839;SDS011;35514;50.504;30.500;2023-02-02T09:50:36;21.27;;;8.70;;
35839;SDS011;35514;50.504;30.500;2023-02-02T09:53:08;21.90;;;9.45;;
35839;SDS011;35514;50.504;30.500;2023-02-02T09:55:36;23.00;;;11.35;;
35839;SDS011;35514;50.504;30.500;2023-02-02T09:58:06;19.83;;;10.25;;
35839;SDS011;35514;50.504;30.500;2023-02-02T10:00:36;28.40;;;9.90;;
35839;SDS011;35514;50.504;30.500;2023-02-02T10:03:06;20.83;;;9.10;;
35839;SDS011;35514;50.504;30.500;2023-02-02T10:05:41;17.60;;;7.43;;
35839;SDS011;35514;50.504;30.500;2023-02-02T10:08:12;16.35;;;7.97;;
35839;SDS011;35514;50.504;30.500;2023-02-02T10:10:59;22.23;;;8.63;;
35839;SDS011;35514;50.504;30.500;2023-02-02T10:13:27;22.17;;;8.95;;
35839;SDS011;35514;50.504;30.500;2023-02-02T10:15:58;24.42;;;8.93;;
35839;SDS011;35514;50.504;30.500;2023-02-02T10:18:34;15.07;;;8.00;;
35839;SDS011;35514;50.504;30.500;2023-02-02T10:21:05;23.45;;;8.35;;
35839;SDS011;35514;50.504;30.500;2023-02-02T10:23:34;31.27;;;9.05;;
35839;SDS011;35514;50.504;30.500;2023-02-02T10:26:03;23.05;;;9.18;;
35839;SDS011;35514;50.504;30.500;2023-02-02T10:28:36;18.13;;;7.40;;
35839;SDS011;35514;50.504;30.500;2023-02-02T10:31:07;16.70;;;8.38;;
35839;SDS011;35514;50.504;30.500;2023-02-02T10:33:39;19.83;;;8.25;;
35839;SDS011;35514;50.504;30.500;2023-02-02T10:36:10;15.30;;;7.93;;
35839;SDS011;35514;50.504;30.500;2023-02-02T10:38:44;13.45;;;7.30;;
35839;SDS011;35514;50.504;30.500;2023-02-02T13:38:44;28.38;;;10.85;;
35839;SDS011;35514;50.504;30.500;2023-02-02T13:41:12;20.27;;;10.15;;
35839;SDS011;35514;50.504;30.500;2023-02-02T13:43:42;23.58;;;11.07;;
35839;SDS011;35514;50.504;30.500;2023-02-02T13:46:17;25.48;;;11.02;;
35839;SDS011;35514;50.504;30.500;2023-02-02T13:48:50;23.20;;;9.98;;
35839;SDS011;35514;50.504;30.500;2023-02-02T13:54:27;26.00;;;10.52;;
35839;SDS011;35514;50.504;30.500;2023-02-02T13:57:01;29.95;;;11.60;;
35839;SDS011;35514;50.504;30.500;2023-02-02T13:59:46;30.52;;;10.60;;
35839;SDS011;35514;50.504;30.500;2023-02-02T14:02:17;43.13;;;12.70;;
35839;SDS011;35514;50.504;30.500;2023-02-02T14:04:52;32.38;;;12.75;;
35839;SDS011;35514;50.504;30.500;2023-02-02T14:07:33;31.75;;;13.23;;
35839;SDS011;35514;50.504;30.500;2023-02-02T14:10:06;35.38;;;11.18;;
35839;SDS011;35514;50.504;30.500;2023-02-02T14:12:46;40.10;;;13.88;;
35839;SDS011;35514;50.504;30.500;2023-02-02T14:15:14;34.47;;;12.40;;
35839;SDS011;35514;50.504;30.500;2023-02-02T14:17:51;29.55;;;12.02;;
35839;SDS011;35514;50.504;30.500;2023-02-02T14:26:05;27.40;;;11.90;;
35839;SDS011;35514;50.504;30.500;2023-02-02T14:28:44;34.53;;;12.50;;
35839;SDS011;35514;50.504;30.500;2023-02-02T14:34:13;32.10;;;12.50;;
35839;SDS011;35514;50.504;30.500;2023-02-02T14:36:48;28.90;;;11.40;;
35839;SDS011;35514;50.504;30.500;2023-02-02T14:39:18;24.98;;;10.60;;
35839;SDS011;35514;50.504;30.500;2023-02-02T14:41:57;31.90;;;11.32;;
35839;SDS011;35514;50.504;30.500;2023-02-02T14:50:32;27.30;;;11.50;;
35839;SDS011;35514;50.504;30.500;2023-02-02T14:53:04;26.40;;;11.15;;
35839;SDS011;35514;50.504;30.500;2023-02-02T14:55:34;32.42;;;10.88;;
35839;SDS011;35514;50.504;30.500;2023-02-02T14:58:05;27.10;;;11.57;;
35839;SDS011;35514;50.504;30.500;2023-02-02T15:00:33;35.65;;;12.02;;
35839;SDS011;35514;50.504;30.500;2023-02-02T15:06:00;35.80;;;13.25;;
35839;SDS011;35514;50.504;30.500;2023-02-02T15:08:28;37.25;;;12.65;;
35839;SDS011;35514;50.504;30.500;2023-02-02T15:11:06;43.90;;;15.05;;
35839;SDS011;35514;50.504;30.500;2023-02-02T15:14:01;32.40;;;12.43;;
35839;SDS011;35514;50.504;30.500;2023-02-02T15:16:34;26.33;;;11.95;;
35839;SDS011;35514;50.504;30.500;2023-02-02T15:19:05;37.05;;;12.55;;
35839;SDS011;35514;50.504;30.500;2023-02-02T15:21:39;31.35;;;12.85;;
35839;SDS011;35514;50.504;30.500;2023-02-02T15:24:14;35.38;;;13.70;;
35839;SDS011;35514;50.504;30.500;2023-02-02T15:26:47;40.85;;;13.88;;
35839;SDS011;35514;50.504;30.500;2023-02-02T15:29:18;42.72;;;14.80;;
35839;SDS011;35514;50.504;30.500;2023-02-02T15:31:50;37.08;;;14.88;;
35839;SDS011;35514;50.504;30.500;2023-02-02T15:34:24;44.03;;;16.38;;
35839;SDS011;35514;50.504;30.500;2023-02-02T15:36:52;38.42;;;14.68;;
35839;SDS011;35514;50.504;30.500;2023-02-02T15:39:30;43.13;;;16.98;;
35839;SDS011;35514;50.504;30.500;2023-02-02T15:41:59;38.92;;;14.25;;
35839;SDS011;35514;50.504;30.500;2023-02-02T15:44:46;39.03;;;14.25;;
35839;SDS011;35514;50.504;30.500;2023-02-02T15:47:21;38.92;;;15.82;;
35839;SDS011;35514;50.504;30.500;2023-02-02T15:49:55;36.67;;;14.02;;
35839;SDS011;35514;50.504;30.500;2023-02-02T15:52:26;33.60;;;14.13;;
35839;SDS011;35514;50.504;30.500;2023-02-02T15:54:57;37.83;;;15.20;;
35839;SDS011;35514;50.504;30.500;2023-02-02T15:57:29;36.45;;;14.45;;
35839;SDS011;35514;50.504;30.500;2023-02-02T16:00:02;36.72;;;14.48;;
35839;SDS011;35514;50.504;30.500;2023-02-02T16:02:51;45.53;;;16.80;;
35839;SDS011;35514;50.504;30.500;2023-02-02T16:05:22;56.10;;;17.75;;
35839;SDS011;35514;50.504;30.500;2023-02-02T16:07:51;56.00;;;19.95;;
35839;SDS011;35514;50.504;30.500;2023-02-02T16:10:31;52.08;;;19.05;;
35839;SDS011;35514;50.504;30.500;2023-02-02T16:12:59;67.70;;;20.63;;
35839;SDS011;35514;50.504;30.500;2023-02-02T16:15:34;50.50;;;18.45;;
35839;SDS011;35514;50.504;30.500;2023-02-02T16:18:03;51.83;;;18.73;;
35839;SDS011;35514;50.504;30.500;2023-02-02T16:20:31;54.83;;;17.92;;
35839;SDS011;35514;50.504;30.500;2023-02-02T16:23:00;49.17;;;18.17;;
35839;SDS011;35514;50.504;30.500;2023-02-02T16:25:32;45.15;;;17.38;;
35839;SDS011;35514;50.504;30.500;2023-02-02T16:28:04;38.50;;;16.40;;
35839;SDS011;35514;50.504;30.500;2023-02-02T16:30:37;44.92;;;17.63;;
35839;SDS011;35514;50.504;30.500;2023-02-02T16:35:47;46.13;;;17.83;;
35839;SDS011;35514;50.504;30.500;2023-02-02T16:38:21;53.05;;;20.17;;
35839;SDS011;35514;50.504;30.500;2023-02-02T16:41:01;48.10;;;18.17;;
35839;SDS011;35514;50.504;30.500;2023-02-02T16:46:10;55.60;;;19.50;;
35839;SDS011;35514;50.504;30.500;2023-02-02T16:48:45;61.30;;;18.38;;
35839;SDS011;35514;50.504;30.500;2023-02-02T16:51:28;58.42;;;19.23;;
35839;SDS011;35514;50.504;30.500;2023-02-02T16:54:00;56.22;;;20.08;;
35839;SDS011;35514;50.504;30.500;2023-02-02T16:56:33;45.55;;;18.48;;
35839;SDS011;35514;50.504;30.500;2023-02-02T16:59:14;42.63;;;16.20;;
35839;SDS011;35514;50.504;30.500;2023-02-02T17:01:48;45.10;;;17.27;;
35839;SDS011;35514;50.504;30.500;2023-02-02T17:04:22;41.65;;;16.75;;
35839;SDS011;35514;50.504;30.500;2023-02-02T17:06:52;42.75;;;17.60;;
35839;SDS011;35514;50.504;30.500;2023-02-02T17:09:25;37.40;;;14.90;;
35839;SDS011;35514;50.504;30.500;2023-02-02T17:11:55;41.22;;;15.80;;
35839;SDS011;35514;50.504;30.500;2023-02-02T17:14:31;45.80;;;15.80;;
35839;SDS011;35514;50.504;30.500;2023-02-02T17:17:04;44.47;;;16.58;;
35839;SDS011;35514;50.504;30.500;2023-02-02T17:19:33;47.10;;;17.02;;
35839;SDS011;35514;50.504;30.500;2023-02-02T17:22:05;42.72;;;16.25;;
35839;SDS011;35514;50.504;30.500;2023-02-02T17:24:34;36.88;;;14.57;;
35839;SDS011;35514;50.504;30.500;2023-02-02T17:27:02;36.80;;;14.30;;
35839;SDS011;35514;50.504;30.500;2023-02-02T17:29:38;44.80;;;16.60;;
35839;SDS011;35514;50.504;30.500;2023-02-02T17:32:11;40.95;;;14.55;;
35839;SDS011;35514;50.504;30.500;2023-02-02T17:34:45;34.75;;;13.15;;
35839;SDS011;35514;50.504;30.500;2023-02-02T17:37:13;35.60;;;15.68;;
35839;SDS011;35514;50.504;30.500;2023-02-02T17:39:40;35.00;;;15.95;;
35839;SDS011;35514;50.504;30.500;2023-02-02T17:42:13;40.80;;;14.57;;
35839;SDS011;35514;50.504;30.500;2023-02-02T17:44:43;35.07;;;14.27;;
35839;SDS011;35514;50.504;30.500;2023-02-02T17:47:13;32.90;;;13.50;;
35839;SDS011;35514;50.504;30.500;2023-02-02T17:49:41;37.15;;;12.90;;
35839;SDS011;35514;50.504;30.500;2023-02-02T17:52:08;33.85;;;12.93;;
35839;SDS011;35514;50.504;30.500;2023-02-02T17:54:37;29.92;;;12.23;;
35839;SDS011;35514;50.504;30.500;2023-02-02T17:57:04;41.28;;;14.38;;
35839;SDS011;35514;50.504;30.500;2023-02-02T17:59:32;32.40;;;14.43;;
35839;SDS011;35514;50.504;30.500;2023-02-02T18:01:59;35.53;;;14.13;;
35839;SDS011;35514;50.504;30.500;2023-02-02T18:04:29;42.05;;;15.07;;
35839;SDS011;35514;50.504;30.500;2023-02-02T18:06:57;36.80;;;13.95;;
35839;SDS011;35514;50.504;30.500;2023-02-02T18:09:25;39.40;;;14.15;;
35839;SDS011;35514;50.504;30.500;2023-02-02T18:11:53;38.17;;;15.63;;
35839;SDS011;35514;50.504;30.500;2023-02-02T18:14:20;43.05;;;14.98;;
35839;SDS011;35514;50.504;30.500;2023-02-02T18:16:48;40.78;;;15.15;;
35839;SDS011;35514;50.504;30.500;2023-02-02T18:19:16;38.13;;;15.38;;
35839;SDS011;35514;50.504;30.500;2023-02-02T18:21:45;45.30;;;17.48;;
35839;SDS011;35514;50.504;30.500;2023-02-02T18:24:13;45.83;;;15.85;;
35839;SDS011;35514;50.504;30.500;2023-02-02T18:26:41;44.05;;;16.48;;
35839;SDS011;35514;50.504;30.500;2023-02-02T18:29:09;46.75;;;15.57;;
35839;SDS011;35514;50.504;30.500;2023-02-02T18:31:36;43.72;;;15.75;;
35839;SDS011;35514;50.504;30.500;2023-02-02T18:34:07;39.42;;;16.15;;
35839;SDS011;35514;50.504;30.500;2023-02-02T18:36:38;47.60;;;15.95;;
35839;SDS011;35514;50.504;30.500;2023-02-02T18:39:10;41.05;;;15.02;;
35839;SDS011;35514;50.504;30.500;2023-02-02T18:41:40;42.67;;;16.30;;
35839;SDS011;35514;50.504;30.500;2023-02-02T18:44:08;36.88;;;14.38;;
35839;SDS011;35514;50.504;30.500;2023-02-02T18:46:38;44.88;;;16.15;;
35839;SDS011;35514;50.504;30.500;2023-02-02T18:49:06;50.20;;;17.90;;
35839;SDS011;35514;50.504;30.500;2023-02-02T18:51:35;45.33;;;16.67;;
35839;SDS011;35514;50.504;30.500;2023-02-02T18:54:03;40.78;;;16.05;;
35839;SDS011;35514;50.504;30.500;2023-02-02T18:56:33;47.60;;;17.55;;
35839;SDS011;35514;50.504;30.500;2023-02-02T18:59:01;44.95;;;15.95;;
35839;SDS011;35514;50.504;30.500;2023-02-02T19:01:29;37.72;;;14.18;;
35839;SDS011;35514;50.504;30.500;2023-02-02T19:03:57;41.58;;;15.75;;
35839;SDS011;35514;50.504;30.500;2023-02-02T19:06:25;40.67;;;15.90;;
35839;SDS011;35514;50.504;30.500;2023-02-02T19:09:11;39.13;;;14.95;;
35839;SDS011;35514;50.504;30.500;2023-02-02T19:11:44;40.67;;;15.73;;
35839;SDS011;35514;50.504;30.500;2023-02-02T19:14:14;43.30;;;16.35;;
35839;SDS011;35514;50.504;30.500;2023-02-02T19:16:43;38.35;;;15.15;;
35839;SDS011;35514;50.504;30.500;2023-02-02T19:19:14;39.03;;;15.35;;
35839;SDS011;35514;50.504;30.500;2023-02-02T19:21:43;39.63;;;14.82;;
35839;SDS011;35514;50.504;30.500;2023-02-02T19:24:10;35.45;;;14.52;;
35839;SDS011;35514;50.504;30.500;2023-02-02T19:26:45;45.05;;;16.77;;
35839;SDS011;35514;50.504;30.500;2023-02-02T19:29:16;45.08;;;16.05;;
35839;SDS011;35514;50.504;30.500;2023-02-02T19:31:49;37.38;;;15.43;;
35839;SDS011;35514;50.504;30.500;2023-02-02T19:34:18;41.05;;;16.60;;
35839;SDS011;35514;50.504;30.500;2023-02-02T19:36:50;45.85;;;16.95;;
35839;SDS011;35514;50.504;30.500;2023-02-02T19:39:19;50.90;;;17.95;;
35839;SDS011;35514;50.504;30.500;2023-02-02T19:41:51;45.35;;;16.10;;
35839;SDS011;35514;50.504;30.500;2023-02-02T19:44:24;44.33;;;16.77;;
35839;SDS011;35514;50.504;30.500;2023-02-02T19:46:55;39.88;;;16.50;;
35839;SDS011;35514;50.504;30.500;2023-02-02T19:49:23;45.00;;;17.40;;
35839;SDS011;35514;50.504;30.500;2023-02-02T19:51:53;50.47;;;17.30;;
35839;SDS011;35514;50.504;30.500;2023-02-02T19:54:26;50.65;;;17.65;;
35839;SDS011;35514;50.504;30.500;2023-02-02T19:56:56;54.80;;;18.60;;
35839;SDS011;35514;50.504;30.500;2023-02-02T19:59:25;55.95;;;18.92;;
35839;SDS011;35514;50.504;30.500;2023-02-02T20:01:54;69.50;;;18.40;;
35839;SDS011;35514;50.504;30.500;2023-02-02T20:04:22;65.03;;;19.95;;
35839;SDS011;35514;50.504;30.500;2023-02-02T20:06:51;73.25;;;22.10;;
35839;SDS011;35514;50.504;30.500;2023-02-02T20:09:25;71.30;;;20.58;;
35839;SDS011;35514;50.504;30.500;2023-02-02T20:11:55;67.25;;;19.95;;
35839;SDS011;35514;50.504;30.500;2023-02-02T20:14:24;79.78;;;21.48;;
35839;SDS011;35514;50.504;30.500;2023-02-02T20:16:58;70.05;;;21.02;;
35839;SDS011;35514;50.504;30.500;2023-02-02T20:19:28;61.65;;;20.48;;
35839;SDS011;35514;50.504;30.500;2023-02-02T20:21:59;68.30;;;20.70;;
35839;SDS011;35514;50.504;30.500;2023-02-02T20:24:34;59.15;;;20.08;;
35839;SDS011;35514;50.504;30.500;2023-02-02T20:27:07;65.80;;;19.48;;
35839;SDS011;35514;50.504;30.500;2023-02-02T20:29:39;55.75;;;19.80;;
35839;SDS011;35514;50.504;30.500;2023-02-02T20:32:14;48.63;;;18.65;;
35839;SDS011;35514;50.504;30.500;2023-02-02T20:34:43;51.83;;;18.97;;
35839;SDS011;35514;50.504;30.500;2023-02-02T20:37:15;46.00;;;17.83;;
35839;SDS011;35514;50.504;30.500;2023-02-02T20:39:48;48.35;;;17.98;;
35839;SDS011;35514;50.504;30.500;2023-02-02T20:42:17;38.58;;;16.02;;
35839;SDS011;35514;50.504;30.500;2023-02-02T20:44:45;43.03;;;17.10;;
35839;SDS011;35514;50.504;30.500;2023-02-02T20:47:13;41.05;;;16.42;;
35839;SDS011;35514;50.504;30.500;2023-02-02T20:49:44;44.83;;;16.85;;
35839;SDS011;35514;50.504;30.500;2023-02-02T20:52:14;40.75;;;16.85;;
35839;SDS011;35514;50.504;30.500;2023-02-02T20:54:48;44.17;;;17.02;;
35839;SDS011;35514;50.504;30.500;2023-02-02T20:57:17;43.63;;;17.42;;
35839;SDS011;35514;50.504;30.500;2023-02-02T20:59:45;40.15;;;16.27;;
35839;SDS011;35514;50.504;30.500;2023-02-02T21:02:13;44.42;;;18.40;;
35839;SDS011;35514;50.504;30.500;2023-02-02T21:04:47;46.42;;;18.50;;
35839;SDS011;35514;50.504;30.500;2023-02-02T21:07:15;41.00;;;17.90;;
35839;SDS011;35514;50.504;30.500;2023-02-02T21:09:43;45.03;;;17.40;;
35839;SDS011;35514;50.504;30.500;2023-02-02T21:12:11;51.78;;;18.63;;
35839;SDS011;35514;50.504;30.500;2023-02-02T21:14:40;47.58;;;18.35;;
35839;SDS011;35514;50.504;30.500;2023-02-02T21:17:10;45.83;;;16.83;;
35839;SDS011;35514;50.504;30.500;2023-02-02T21:19:41;41.95;;;17.35;;
35839;SDS011;35514;50.504;30.500;2023-02-02T21:22:08;42.92;;;17.30;;
35839;SDS011;35514;50.504;30.500;2023-02-02T21:24:36;43.58;;;17.65;;
35839;SDS011;35514;50.504;30.500;2023-02-02T21:27:04;42.88;;;15.75;;
35839;SDS011;35514;50.504;30.500;2023-02-02T21:29:32;39.47;;;16.92;;
35839;SDS011;35514;50.504;30.500;2023-02-02T21:32:03;39.13;;;15.77;;
35839;SDS011;35514;50.504;30.500;2023-02-02T21:34:31;33.95;;;14.63;;
35839;SDS011;35514;50.504;30.500;2023-02-02T21:36:59;39.53;;;14.93;;